Time;durP1;ratioP1;P1;durP2;ratioP2;P2;SDS_P1;SDS_P2;PMS_P1;PMS_P2;Temp;Humidity;BMP_temperature;BMP_pressure;BME280_temperature;BME280_humidity;BME280_pressure;Samples;Min_cycle;Max_cycle;Signal;HPM_P1;HPM_P2
2022/05/31 00:02:13;;;;;;;5.47;2.95;;;;;;;11.56;79.87;99921.81;4426338;32;34245;-90
2022/05/31 00:04:41;;;;;;;7.00;3.00;;;;;;;11.49;80.67;99912.91;4414493;32;34030;-90
2022/05/31 00:07:08;;;;;;;5.22;3.20;;;;;;;11.29;81.29;99905.94;4411695;32;33731;-90
2022/05/31 00:09:36;;;;;;;8.15;3.65;;;;;;;11.33;81.59;99900.06;4421906;32;34115;-90
2022/05/31 00:12:06;;;;;;;6.32;3.50;;;;;;;11.28;81.73;99891.19;4407119;32;35332;-90
2022/05/31 00:14:33;;;;;;;6.12;3.97;;;;;;;11.16;81.88;99891.56;4414303;32;32843;-90
2022/05/31 00:17:01;;;;;;;5.47;3.20;;;;;;;11.41;80.70;99893.50;4426157;32;34437;-90
2022/05/31 00:19:30;;;;;;;5.72;3.55;;;;;;;11.70;79.44;99897.31;4427797;32;33792;-90
2022/05/31 00:22:18;;;;;;;7.53;3.47;;;;;;;11.48;80.41;99895.53;4408038;32;32465;-89
2022/05/31 00:24:46;;;;;;;6.32;3.30;;;;;;;11.20;81.60;99903.84;4414664;32;34341;-90
2022/05/31 00:27:17;;;;;;;5.75;3.50;;;;;;;11.47;80.64;99911.91;4412367;32;34139;-90
2022/05/31 00:29:47;;;;;;;5.53;3.22;;;;;;;11.14;81.89;99907.03;4426054;32;35520;-90
2022/05/31 00:32:16;;;;;;;5.30;3.58;;;;;;;11.29;81.54;99909.41;4423881;32;35147;-89
2022/05/31 00:34:46;;;;;;;6.12;3.78;;;;;;;11.43;80.39;99917.78;4425410;32;35765;-90
2022/05/31 00:37:14;;;;;;;6.40;3.80;;;;;;;11.14;82.03;99922.59;4412336;32;33918;-90
2022/05/31 00:39:42;;;;;;;6.47;3.80;;;;;;;10.89;83.14;99922.31;4426400;32;34571;-90
2022/05/31 00:42:12;;;;;;;5.47;3.30;;;;;;;11.28;81.80;99922.31;4422396;32;33096;-90
2022/05/31 00:44:41;;;;;;;5.32;3.17;;;;;;;11.59;78.77;99924.56;4413368;32;32684;-90
2022/05/31 00:47:31;;;;;;;4.90;3.17;;;;;;;11.52;79.28;99927.69;4411640;32;32952;-90
2022/05/31 00:50:04;;;;;;;6.78;4.22;;;;;;;10.80;83.27;99928.88;4436187;32;33798;-89
2022/05/31 00:52:36;;;;;;;6.60;4.05;;;;;;;10.78;84.12;99930.50;4420557;32;35578;-90
2022/05/31 00:55:12;;;;;;;8.18;3.92;;;;;;;10.91;83.51;99933.63;4419161;32;34429;-90
2022/05/31 00:57:45;;;;;;;7.37;3.72;;;;;;;11.05;82.81;99937.75;4421970;32;35086;-89
2022/05/31 01:00:15;;;;;;;7.33;4.60;;;;;;;11.19;82.50;99939.25;4427679;32;34662;-89
2022/05/31 01:02:44;;;;;;;6.30;3.58;;;;;;;11.01;82.55;99933.25;4426358;32;35644;-90
2022/05/31 01:05:13;;;;;;;6.68;3.87;;;;;;;10.81;83.11;99941.00;4413849;32;34596;-90
2022/05/31 01:07:42;;;;;;;6.70;3.95;;;;;;;10.69;84.04;99947.31;4408648;32;32504;-89
2022/05/31 01:10:12;;;;;;;7.90;4.10;;;;;;;10.64;84.34;99947.09;4412346;32;35558;-89
2022/05/31 01:12:45;;;;;;;7.72;3.80;;;;;;;10.58;84.19;99946.81;4416263;32;35114;-89
2022/05/31 01:15:19;;;;;;;8.35;4.25;;;;;;;10.65;83.93;99948.88;4410624;32;34416;-90
2022/05/31 01:18:10;;;;;;;7.35;3.30;;;;;;;10.97;82.06;99941.69;4411446;32;34383;-89
2022/05/31 01:20:40;;;;;;;7.22;3.60;;;;;;;11.23;80.59;99942.00;4412937;32;35246;-89
2022/05/31 01:23:18;;;;;;;7.87;4.07;;;;;;;11.00;81.53;99947.91;4409821;32;33962;-90
2022/05/31 01:26:12;;;;;;;6.57;3.75;;;;;;;10.88;82.54;99951.66;4424296;32;34127;-89
2022/05/31 01:28:43;;;;;;;7.62;3.53;;;;;;;10.87;82.45;99950.75;4429603;32;34543;-90
2022/05/31 01:31:20;;;;;;;6.75;4.10;;;;;;;10.63;83.70;99960.88;4423617;32;34158;-90
2022/05/31 01:33:53;;;;;;;7.12;3.62;;;;;;;10.68;83.82;99959.41;4425747;32;35156;-90
2022/05/31 01:36:25;;;;;;;6.78;3.83;;;;;;;10.37;85.23;99963.13;4424790;32;33902;-90
2022/05/31 01:39:06;;;;;;;6.57;3.80;;;;;;;10.59;83.79;99962.44;4407943;32;34805;-89
2022/05/31 01:41:41;;;;;;;6.07;3.85;;;;;;;10.40;84.64;99963.25;4403893;32;34613;-90
2022/05/31 01:44:10;;;;;;;;;;;;;;;10.22;84.81;99972.72;4412700;32;34624;-90
2022/05/31 01:46:37;;;;;;;5.25;3.60;;;;;;;10.15;85.60;99968.03;4413658;32;32895;-90
2022/05/31 01:49:10;;;;;;;7.37;3.67;;;;;;;10.11;86.17;99963.53;4423078;32;34886;-89
2022/05/31 01:51:40;;;;;;;6.80;4.10;;;;;;;10.37;85.09;99970.91;4403854;32;34999;-90
2022/05/31 01:54:10;;;;;;;8.65;4.95;;;;;;;10.28;84.43;99967.81;4422117;32;34365;-90
2022/05/31 01:56:40;;;;;;;6.47;3.80;;;;;;;10.16;85.03;99962.03;4408479;32;35311;-91
2022/05/31 01:59:07;;;;;;;7.28;4.03;;;;;;;10.10;85.47;99967.81;4409364;32;34760;-92
2022/05/31 02:01:36;;;;;;;8.30;3.85;;;;;;;9.98;85.83;99972.38;4404772;32;35078;-90
2022/05/31 02:04:05;;;;;;;11.50;3.80;;;;;;;10.01;86.03;99967.34;4419482;32;34902;-91
2022/05/31 02:06:38;;;;;;;8.20;4.10;;;;;;;10.26;84.93;99971.13;4428186;27;33984;-57
2022/05/31 02:09:10;;;;;;;5.37;3.47;;;;;;;10.27;84.16;99971.22;4438532;32;34151;-57
2022/05/31 02:11:38;;;;;;;6.55;3.22;;;;;;;10.04;83.93;99965.81;4452378;32;36314;-57
2022/05/31 02:14:07;;;;;;;7.57;4.18;;;;;;;9.95;85.00;99982.59;4439184;32;33614;-58
2022/05/31 02:16:35;;;;;;;6.40;2.97;;;;;;;10.47;82.33;99977.41;4453110;32;35749;-58
2022/05/31 02:19:23;;;;;;;5.78;3.45;;;;;;;10.51;82.86;99976.72;4429179;32;31823;-58
2022/05/31 02:21:56;;;;;;;11.20;3.58;;;;;;;10.37;83.69;99977.75;4455566;32;34026;-56
2022/05/31 02:24:24;;;;;;;5.62;3.70;;;;;;;10.30;83.91;99968.81;4439025;32;33818;-57
2022/05/31 02:26:53;;;;;;;7.43;3.67;;;;;;;11.46;78.76;99966.34;4454748;32;33840;-57
2022/05/31 02:29:26;;;;;;;6.45;3.65;;;;;;;11.18;79.30;99968.59;4452828;32;33084;-59
2022/05/31 02:31:56;;;;;;;6.18;3.85;;;;;;;10.66;81.84;99971.37;4454289;32;34641;-57
2022/05/31 02:34:26;;;;;;;7.32;3.92;;;;;;;11.37;79.04;99962.50;4454333;32;34680;-56
2022/05/31 02:36:54;;;;;;;5.65;3.83;;;;;;;10.55;82.82;99976.06;4451398;32;32962;-58
2022/05/31 02:39:21;;;;;;;5.93;4.10;;;;;;;10.50;83.18;99976.66;4448948;32;33518;-56
2022/05/31 02:41:50;;;;;;;7.18;4.18;;;;;;;10.34;84.02;99978.50;4455030;32;33815;-58
2022/05/31 02:44:20;;;;;;;7.53;5.00;;;;;;;10.19;84.86;99982.91;4453024;32;34623;-56
2022/05/31 02:46:48;;;;;;;9.25;5.00;;;;;;;10.06;84.83;99985.69;4440538;32;33703;-57
2022/05/31 02:49:15;;;;;;;8.45;4.97;;;;;;;10.11;84.92;99984.22;4454220;32;34194;-58
2022/05/31 02:51:45;;;;;;;12.02;5.12;;;;;;;9.95;85.83;99988.66;4454988;32;33495;-57
2022/05/31 02:54:14;;;;;;;7.00;4.53;;;;;;;9.95;85.84;99986.06;4454942;32;33920;-58
2022/05/31 02:56:48;;;;;;;7.95;4.75;;;;;;;9.86;86.86;99988.16;4454240;32;31815;-58
2022/05/31 02:59:21;;;;;;;6.12;4.15;;;;;;;9.90;86.42;99984.94;4436499;32;32803;-58
2022/05/31 03:01:51;;;;;;;10.23;5.00;;;;;;;9.99;85.90;99984.50;4453134;32;33941;-56
2022/05/31 03:04:41;;;;;;;8.38;4.43;;;;;;;9.84;86.52;99984.63;4454698;32;33848;-57
2022/05/31 03:07:11;;;;;;;8.13;4.57;;;;;;;9.91;86.53;99985.81;4454067;32;32534;-58
2022/05/31 03:09:40;;;;;;;6.45;3.65;;;;;;;10.09;85.47;99978.09;4453710;32;32376;-58
2022/05/31 03:12:12;;;;;;;5.97;3.67;;;;;;;10.49;83.13;99980.03;4454907;32;34062;-56
2022/05/31 03:14:53;;;;;;;5.35;2.92;;;;;;;11.07;80.17;99974.09;4440680;32;34384;-57
2022/05/31 03:17:41;;;;;;;5.12;3.35;;;;;;;11.75;76.89;99978.84;4438908;32;33431;-57
2022/05/31 03:20:14;;;;;;;4.37;2.80;;;;;;;10.92;80.40;99975.19;4454265;32;33451;-57
2022/05/31 03:22:46;;;;;;;7.90;3.17;;;;;;;10.71;80.82;99980.25;4441178;32;34448;-57
2022/05/31 03:25:20;;;;;;;5.82;2.90;;;;;;;11.18;78.23;99976.38;4440471;32;34431;-58
2022/05/31 03:27:49;;;;;;;5.12;3.00;;;;;;;11.85;75.55;99974.94;4440267;32;33947;-58
2022/05/31 03:30:17;;;;;;;6.35;3.87;;;;;;;10.94;79.09;99972.66;4440655;32;33465;-59
2022/05/31 03:32:45;;;;;;;5.62;3.10;;;;;;;10.45;82.17;99970.34;4440245;32;33809;-58
2022/05/31 03:35:12;;;;;;;7.40;3.30;;;;;;;10.18;83.67;99975.97;4449695;32;33958;-57
2022/05/31 03:37:41;;;;;;;6.03;3.75;;;;;;;10.34;82.82;99977.63;4447943;32;34410;-57
2022/05/31 03:40:55;;;;;;;8.43;3.30;;;;;;;10.64;81.97;99978.19;4453661;32;32531;-58
2022/05/31 03:43:00;;;;;;;6.80;3.70;;;;;;;10.47;83.20;99984.25;4452158;32;33930;-58
2022/05/31 03:45:36;;;;;;;9.98;4.37;;;;;;;10.34;84.23;99983.69;4453352;32;34733;-58
2022/05/31 03:48:06;;;;;;;6.37;4.37;;;;;;;10.27;84.51;99991.91;4453505;32;32176;-58
2022/05/31 03:50:35;;;;;;;7.53;4.37;;;;;;;10.79;82.06;99993.56;4449564;32;34154;-57
2022/05/31 03:53:09;;;;;;;7.05;4.10;;;;;;;11.76;78.33;99987.53;4452915;32;33881;-58
2022/05/31 03:55:39;;;;;;;8.02;4.68;;;;;;;11.15;79.46;99981.41;4452822;32;33550;-58
2022/05/31 03:58:07;;;;;;;7.03;4.18;;;;;;;10.59;83.01;99990.94;4452465;32;34041;-59
2022/05/31 04:00:36;;;;;;;9.70;4.00;;;;;;;10.78;81.80;99987.50;4426527;32;33116;-57
2022/05/31 04:03:03;;;;;;;9.57;4.20;;;;;;;10.76;82.44;99996.03;4453445;32;33816;-57
2022/05/31 04:05:32;;;;;;;10.82;4.47;;;;;;;10.65;83.10;100005.00;4452324;32;34577;-58
2022/05/31 04:08:08;;;;;;;8.63;5.12;;;;;;;10.90;82.71;100004.44;4453366;32;34037;-58
2022/05/31 04:10:36;;;;;;;8.57;4.95;;;;;;;10.76;83.33;100001.22;4438882;32;33414;-58
2022/05/31 04:13:04;;;;;;;10.18;4.90;;;;;;;10.86;83.80;100006.00;4451447;32;32305;-58
2022/05/31 04:15:41;;;;;;;9.00;5.25;;;;;;;10.75;84.50;100010.66;4453249;32;33888;-56
2022/05/31 04:18:10;;;;;;;9.43;5.50;;;;;;;10.81;84.52;100003.19;4440209;32;34598;-58
2022/05/31 04:20:38;;;;;;;7.53;4.97;;;;;;;11.02;83.38;99997.22;4452158;32;33496;-59
2022/05/31 04:26:03;;;;;;;9.18;6.00;;;;;;;10.97;84.52;100003.91;4447489;32;32270;-57
2022/05/31 04:28:33;;;;;;;11.50;5.43;;;;;;;11.18;83.71;99989.34;4443366;32;33363;-56
2022/05/31 04:31:07;;;;;;;9.50;5.35;;;;;;;11.64;81.59;99992.19;4433162;32;32769;-57
2022/05/31 04:33:35;;;;;;;7.40;4.40;;;;;;;11.97;80.17;99995.38;4452328;32;34383;-58
2022/05/31 04:36:06;;;;;;;8.55;4.30;;;;;;;12.91;77.06;99991.34;4447972;32;34019;-57
2022/05/31 04:38:35;;;;;;;6.85;3.87;;;;;;;13.47;74.47;99983.94;4446160;32;34845;-57
2022/05/31 04:41:03;;;;;;;6.93;3.95;;;;;;;13.65;73.01;99983.69;4453198;32;33736;-57
2022/05/31 04:43:33;;;;;;;6.72;3.90;;;;;;;13.83;71.95;99984.34;4445527;32;31644;-58
2022/05/31 04:46:10;;;;;;;5.93;3.53;;;;;;;13.77;72.32;99984.09;4450882;32;34054;-57
2022/05/31 04:48:38;;;;;;;6.65;3.65;;;;;;;14.59;69.37;99984.25;4448218;32;34034;-58
2022/05/31 04:51:06;;;;;;;9.35;4.03;;;;;;;13.53;72.40;99978.94;4449838;32;32467;-58
2022/05/31 04:53:34;;;;;;;9.00;4.00;;;;;;;13.05;75.53;99984.94;4450025;32;33548;-58
2022/05/31 04:56:04;;;;;;;8.18;3.83;;;;;;;14.42;69.80;99983.66;4444505;32;32200;-59
2022/05/31 04:58:33;;;;;;;5.37;3.08;;;;;;;14.81;68.75;99983.16;4448143;32;34042;-57
2022/05/31 05:01:01;;;;;;;7.35;3.28;;;;;;;14.69;69.13;99981.06;4444905;32;32970;-58
2022/05/31 05:03:29;;;;;;;4.60;3.12;;;;;;;14.91;68.65;99975.69;4450887;32;32657;-57
2022/05/31 05:06:02;;;;;;;4.75;2.50;;;;;;;15.36;67.23;99982.19;4450453;32;34063;-56
2022/05/31 05:08:31;;;;;;;5.62;2.60;;;;;;;15.39;66.95;99978.78;4450489;32;34603;-58
2022/05/31 05:11:00;;;;;;;5.45;2.55;;;;;;;15.85;64.33;99980.94;4447751;32;33513;-58
2022/05/31 05:13:28;;;;;;;8.85;3.42;;;;;;;14.36;69.24;99982.62;4444980;32;33889;-59
2022/05/31 05:15:59;;;;;;;7.20;3.10;;;;;;;13.54;73.09;99980.69;4447296;32;33684;-57
2022/05/31 05:18:32;;;;;;;5.85;3.22;;;;;;;13.69;73.14;99990.75;4451626;32;33634;-58
2022/05/31 05:21:01;;;;;;;5.43;3.22;;;;;;;13.68;73.01;99981.19;4432390;32;33399;-58
2022/05/31 05:23:30;;;;;;;4.72;2.90;;;;;;;13.68;73.58;99991.63;4445825;32;34102;-57
2022/05/31 05:25:59;;;;;;;5.78;2.70;;;;;;;13.93;72.89;99983.81;4451088;32;34859;-57
2022/05/31 05:31:33;;;;;;;10.15;2.70;;;;;;;14.60;69.57;99992.09;4448713;32;34069;-58
2022/05/31 05:34:04;;;;;;;6.50;2.65;;;;;;;13.86;72.26;99992.22;4449619;32;34450;-58
2022/05/31 05:36:35;;;;;;;5.22;2.17;;;;;;;14.56;70.43;99995.41;4448651;32;33578;-57
2022/05/31 05:39:02;;;;;;;5.20;2.08;;;;;;;15.62;66.71;99989.84;4443335;32;34687;-57
2022/05/31 05:41:33;;;;;;;4.30;1.87;;;;;;;15.79;66.21;99992.97;4448141;32;32922;-57
2022/05/31 05:44:06;;;;;;;2.42;1.55;;;;;;;15.88;65.38;99988.00;4450593;32;34013;-58
2022/05/31 05:46:34;;;;;;;3.33;1.75;;;;;;;16.06;64.44;99995.41;4447456;32;33828;-57
2022/05/31 05:49:02;;;;;;;5.80;2.42;;;;;;;16.01;64.78;99989.19;4450362;32;33915;-57
2022/05/31 05:51:32;;;;;;;3.78;2.03;;;;;;;15.18;66.70;99986.88;4416766;32;32705;-57
2022/05/31 05:54:06;;;;;;;6.10;2.47;;;;;;;16.09;64.69;99992.91;4447468;32;33907;-58
2022/05/31 05:56:38;;;;;;;4.87;1.85;;;;;;;16.38;63.60;99991.00;4454382;32;32334;-58
2022/05/31 05:59:08;;;;;;;5.43;2.00;;;;;;;16.88;62.59;99987.81;4455703;32;32447;-57
2022/05/31 06:01:48;;;;;;;3.20;2.05;;;;;;;17.16;62.12;99994.53;4437056;32;32283;-57
2022/05/31 06:04:48;;;;;;;6.32;2.30;;;;;;;17.20;63.17;99998.09;4449137;32;34530;-58
2022/05/31 06:07:19;;;;;;;6.12;2.78;;;;;;;17.78;61.64;99990.53;4446450;32;34656;-59
2022/05/31 06:09:53;;;;;;;5.72;2.92;;;;;;;18.18;60.33;99994.75;4432903;32;33880;-58
2022/05/31 06:12:23;;;;;;;6.95;3.05;;;;;;;17.85;61.42;99998.56;4453457;32;33542;-57
2022/05/31 06:14:55;;;;;;;5.53;2.42;;;;;;;18.02;61.39;99990.09;4447129;32;33011;-57
2022/05/31 06:17:27;;;;;;;5.75;2.90;;;;;;;18.35;60.43;99999.41;4452482;32;34655;-57
2022/05/31 06:19:55;;;;;;;6.43;2.60;;;;;;;17.90;59.09;100000.37;4438338;32;33928;-57
2022/05/31 06:22:22;;;;;;;4.50;2.42;;;;;;;17.08;60.62;100006.59;4450676;32;34175;-57
2022/05/31 06:24:50;;;;;;;4.53;2.30;;;;;;;17.08;61.74;100002.22;4453608;32;33697;-58
2022/05/31 06:27:21;;;;;;;4.07;2.17;;;;;;;17.98;60.08;99998.75;4451751;32;32456;-57
2022/05/31 06:29:49;;;;;;;6.72;2.47;;;;;;;17.88;60.66;100003.84;4452646;32;34096;-58
2022/05/31 06:32:17;;;;;;;4.75;2.83;;;;;;;17.24;62.29;100002.56;4440013;32;34144;-57
2022/05/31 06:34:45;;;;;;;5.60;2.50;;;;;;;17.05;62.09;100002.13;4452985;32;33781;-57
2022/05/31 06:37:16;;;;;;;4.50;2.87;;;;;;;17.17;60.62;100005.88;4435935;32;32642;-58
2022/05/31 06:39:45;;;;;;;5.68;2.90;;;;;;;17.33;61.21;100021.06;4449954;32;34054;-58
2022/05/31 06:42:16;;;;;;;4.90;2.62;;;;;;;17.25;60.51;100020.03;4440454;32;31738;-57
2022/05/31 06:44:49;;;;;;;4.68;2.75;;;;;;;17.40;59.41;100024.69;4436480;32;33210;-57
2022/05/31 06:47:22;;;;;;;7.93;2.45;;;;;;;17.75;58.96;100022.78;4452432;32;33868;-58
2022/05/31 06:49:55;;;;;;;4.97;2.05;;;;;;;18.79;56.51;100018.44;4453702;32;32226;-57
2022/05/31 06:57:59;;;;;;;5.22;1.98;;;;;;;17.59;56.99;100018.97;4451990;32;33871;-58
2022/05/31 07:00:27;;;;;;;4.90;2.10;;;;;;;17.45;57.03;100010.84;4451545;32;34610;-59
2022/05/31 07:02:55;;;;;;;5.47;2.08;;;;;;;17.59;57.42;100007.63;4444505;32;33341;-58
2022/05/31 07:05:24;;;;;;;6.28;2.83;;;;;;;18.40;56.48;100009.09;4432916;32;32477;-58
2022/05/31 07:07:53;;;;;;;4.70;1.90;;;;;;;19.16;55.95;100002.38;4455365;32;34710;-58
2022/05/31 07:10:26;;;;;;;4.05;2.05;;;;;;;19.48;53.09;100004.53;4453213;32;33037;-57
2022/05/31 07:12:56;;;;;;;3.47;1.80;;;;;;;18.66;54.31;100014.78;4451765;32;32522;-57
2022/05/31 07:15:31;;;;;;;6.37;2.35;;;;;;;19.69;52.39;100007.41;4445635;32;32482;-58
2022/05/31 07:18:20;;;;;;;4.25;2.12;;;;;;;19.07;52.36;100008.41;4436694;32;33905;-58
2022/05/31 07:20:47;;;;;;;4.20;2.03;;;;;;;18.75;52.60;100005.28;4455433;32;34202;-57
2022/05/31 07:23:16;;;;;;;5.07;1.90;;;;;;;19.46;52.40;100007.13;4457293;32;33581;-59
2022/05/31 07:25:44;;;;;;;3.55;2.03;;;;;;;19.91;51.44;100005.91;4425341;32;32291;-57
2022/05/31 07:28:11;;;;;;;5.35;2.00;;;;;;;20.19;49.79;100004.44;4450584;32;33946;-59
2022/05/31 07:30:39;;;;;;;4.47;2.25;;;;;;;20.71;49.24;100011.03;4452668;32;34074;-58
2022/05/31 07:33:08;;;;;;;4.37;2.12;;;;;;;20.20;48.77;100014.09;4450553;32;33370;-57
2022/05/31 07:35:55;;;;;;;4.18;2.37;;;;;;;20.20;50.59;100011.47;4454683;32;34735;-57
2022/05/31 07:38:23;;;;;;;3.92;2.37;;;;;;;20.43;49.60;100010.75;4453559;32;33933;-56
2022/05/31 07:40:51;;;;;;;10.95;3.15;;;;;;;20.13;49.56;100007.00;4450250;32;34498;-58
2022/05/31 07:43:19;;;;;;;7.62;2.83;;;;;;;20.03;50.22;100015.69;4449083;32;34130;-58
2022/05/31 07:45:48;;;;;;;7.78;2.97;;;;;;;21.04;49.09;100010.34;4453695;32;33757;-58
2022/05/31 07:48:16;;;;;;;6.60;2.85;;;;;;;21.41;47.27;100006.09;4437686;32;33381;-57
2022/05/31 07:50:44;;;;;;;4.90;3.17;;;;;;;21.47;47.88;100010.56;4454049;32;33546;-58
2022/05/31 07:53:13;;;;;;;4.87;2.60;;;;;;;21.40;47.93;100014.91;4454088;32;33511;-59
2022/05/31 07:55:43;;;;;;;4.90;2.90;;;;;;;21.59;47.14;100013.25;4452321;32;33218;-57
2022/05/31 07:58:32;;;;;;;6.32;3.05;;;;;;;20.78;49.03;100018.06;4439669;32;32042;-57
2022/05/31 08:01:07;;;;;;;7.95;3.12;;;;;;;20.68;48.67;100016.25;4449999;32;33672;-58
2022/05/31 08:03:40;;;;;;;4.93;2.53;;;;;;;20.47;49.15;100022.19;4450127;32;33581;-57
2022/05/31 08:06:13;;;;;;;6.07;2.70;;;;;;;20.99;48.15;100014.69;4445569;32;33832;-58
2022/05/31 08:08:41;;;;;;;5.90;2.87;;;;;;;21.88;45.92;100016.84;4444014;32;34114;-59
2022/05/31 08:11:11;;;;;;;5.07;2.55;;;;;;;22.13;45.06;100015.97;4450188;32;33918;-58
2022/05/31 08:13:40;;;;;;;7.00;3.90;;;;;;;22.88;43.63;100015.09;4449509;32;32707;-58
2022/05/31 08:16:10;;;;;;;9.00;3.80;;;;;;;22.45;41.88;100031.00;4452198;32;34693;-57
2022/05/31 08:18:38;;;;;;;6.57;3.33;;;;;;;23.02;42.16;100025.62;4452885;32;33733;-57
2022/05/31 08:21:10;;;;;;;6.80;3.05;;;;;;;21.37;45.30;100025.41;4452433;32;33794;-58
2022/05/31 08:23:38;;;;;;;7.20;3.10;;;;;;;20.75;47.02;100024.19;4452155;32;33112;-57
2022/05/31 08:26:05;;;;;;;7.57;3.67;;;;;;;20.98;47.59;100021.72;4453561;32;34410;-57
2022/05/31 08:28:34;;;;;;;6.50;3.12;;;;;;;21.21;46.71;100024.47;4453813;32;33874;-57
2022/05/31 08:31:04;;;;;;;6.95;2.92;;;;;;;21.15;45.84;100031.44;4451231;32;34435;-58
2022/05/31 08:33:33;;;;;;;6.57;3.10;;;;;;;22.44;43.68;100034.50;4450025;32;32431;-58
2022/05/31 08:36:01;;;;;;;8.55;3.15;;;;;;;21.61;46.44;100029.06;4449183;32;34440;-57
2022/05/31 08:38:31;;;;;;;7.78;3.75;;;;;;;21.80;46.56;100032.63;4449007;32;33642;-59
2022/05/31 08:41:17;;;;;;;9.18;3.50;;;;;;;21.58;45.32;100034.34;4452366;32;33683;-57
2022/05/31 08:43:44;;;;;;;6.45;3.42;;;;;;;21.77;45.05;100028.25;4449903;32;33252;-58
2022/05/31 08:46:23;;;;;;;6.10;3.20;;;;;;;22.05;45.80;100030.94;4448230;32;33610;-56
2022/05/31 08:49:13;;;;;;;7.60;3.97;;;;;;;22.02;45.67;100030.03;4419436;32;31958;-57
2022/05/31 08:51:54;;;;;;;8.45;3.50;;;;;;;21.13;46.82;100027.94;4429736;32;34595;-58
2022/05/31 08:57:48;;;;;;;4.75;3.17;;;;;;;20.73;49.20;100027.69;4440384;32;34680;-57
2022/05/31 09:00:23;;;;;;;6.68;3.03;;;;;;;20.97;48.48;100037.50;4447386;32;34068;-59
2022/05/31 09:03:03;;;;;;;6.05;3.03;;;;;;;20.94;49.13;100030.47;4427997;32;33833;-57
2022/05/31 09:05:34;;;;;;;5.78;3.08;;;;;;;20.49;50.64;100026.59;4434309;32;32969;-58
2022/05/31 09:08:07;;;;;;;7.15;3.22;;;;;;;20.42;51.32;100022.16;4438833;32;33887;-58
2022/05/31 09:11:10;;;;;;;6.97;3.47;;;;;;;20.09;51.55;100025.34;4439301;32;33908;-59
2022/05/31 09:13:57;;;;;;;6.57;3.05;;;;;;;20.11;50.73;100019.25;4440458;32;33598;-58
2022/05/31 09:16:52;;;;;;;7.53;3.55;;;;;;;20.38;51.39;100028.28;4426615;32;33448;-59
2022/05/31 09:19:32;;;;;;;6.57;3.45;;;;;;;20.31;50.53;100021.19;4434388;32;33856;-57
2022/05/31 09:22:01;;;;;;;7.87;3.22;;;;;;;20.09;51.38;100015.75;4442925;32;34612;-58
2022/05/31 09:24:29;;;;;;;9.95;3.60;;;;;;;20.01;52.20;100013.03;4441441;32;34472;-58
2022/05/31 09:27:06;;;;;;;5.95;3.10;;;;;;;19.84;51.86;100028.62;4446952;32;33148;-57
2022/05/31 09:30:09;;;;;;;6.72;2.92;;;;;;;20.23;51.26;100018.50;4444160;32;33886;-57
2022/05/31 09:33:00;;;;;;;7.10;3.28;;;;;;;21.11;48.91;100011.22;4449431;32;33835;-57
2022/05/31 09:35:36;;;;;;;6.25;3.40;;;;;;;20.73;50.04;100019.81;4422942;32;33911;-57
2022/05/31 09:38:58;;;;;;;7.43;3.40;;;;;;;20.90;50.13;100023.44;4453550;32;33401;-59
2022/05/31 09:41:29;;;;;;;7.25;3.37;;;;;;;20.96;48.75;100012.94;4383942;32;33816;-58
2022/05/31 09:43:56;;;;;;;7.25;2.95;;;;;;;20.73;50.79;100027.69;4438792;32;33070;-57
2022/05/31 09:46:33;;;;;;;9.27;3.08;;;;;;;21.86;47.94;100005.41;4453112;32;34347;-59
2022/05/31 09:49:28;;;;;;;6.32;2.80;;;;;;;21.38;48.90;100000.84;4450183;32;33013;-58
2022/05/31 09:51:55;;;;;;;9.90;2.67;;;;;;;22.49;46.18;100005.50;4450970;32;32514;-58
2022/05/31 09:57:19;;;;;;;9.02;3.40;;;;;;;21.62;46.45;100009.75;4448310;32;34305;-59
2022/05/31 09:59:52;;;;;;;10.30;3.92;;;;;;;20.70;49.91;100019.78;4436255;32;33697;-58
2022/05/31 10:02:35;;;;;;;7.35;3.80;;;;;;;19.77;51.57;100018.91;4450868;32;33714;-56
2022/05/31 10:05:29;;;;;;;7.57;3.35;;;;;;;20.17;51.92;100014.06;4449749;32;32386;-58
2022/05/31 10:07:57;;;;;;;7.80;4.22;;;;;;;20.82;51.75;100009.31;4434822;32;33916;-57
2022/05/31 10:10:29;;;;;;;5.87;3.35;;;;;;;20.34;50.92;100005.41;4433746;32;33451;-57
2022/05/31 10:13:04;;;;;;;7.15;3.40;;;;;;;20.73;51.85;100009.28;4446569;32;34362;-58
2022/05/31 10:15:44;;;;;;;6.93;3.22;;;;;;;20.91;50.69;99998.84;4447974;32;34769;-58
2022/05/31 10:18:33;;;;;;;7.90;3.42;;;;;;;21.30;50.72;100002.53;4445709;32;34570;-58
2022/05/31 10:21:04;;;;;;;7.75;3.40;;;;;;;21.50;48.57;99993.87;4449350;32;32031;-58
2022/05/31 10:23:43;;;;;;;8.38;3.40;;;;;;;20.81;49.42;99989.12;4433562;32;33266;-56
2022/05/31 10:26:25;;;;;;;7.80;2.60;;;;;;;20.76;48.95;99989.09;4446299;32;32715;-56
2022/05/31 10:28:59;;;;;;;6.75;3.20;;;;;;;21.13;49.31;99993.69;4451396;32;32336;-58
2022/05/31 10:31:43;;;;;;;8.45;3.10;;;;;;;21.49;47.33;99986.84;4446322;32;33137;-57
2022/05/31 10:34:44;;;;;;;5.20;2.58;;;;;;;22.30;47.09;99994.06;4435162;32;33467;-57
2022/05/31 10:37:25;;;;;;;6.47;2.50;;;;;;;22.51;46.35;99993.16;4446854;32;33255;-58
2022/05/31 10:40:11;;;;;;;8.75;2.70;;;;;;;23.61;43.83;99986.69;4449513;32;34580;-58
2022/05/31 10:42:42;;;;;;;11.55;2.60;;;;;;;22.48;46.96;99994.03;4421859;32;33148;-58
2022/05/31 10:45:23;;;;;;;5.50;2.65;;;;;;;21.63;47.68;99985.13;4436325;32;34664;-58
2022/05/31 10:47:56;;;;;;;7.68;3.25;;;;;;;21.19;47.55;99985.84;4447885;32;33605;-58
2022/05/31 10:50:33;;;;;;;6.93;2.95;;;;;;;21.48;47.35;99985.97;4432957;32;34742;-57
2022/05/31 10:53:14;;;;;;;4.62;2.53;;;;;;;21.41;46.73;99990.31;4439990;32;33732;-57
2022/05/31 10:55:46;;;;;;;6.57;2.40;;;;;;;22.12;46.84;99989.62;4447495;32;33634;-57
2022/05/31 10:58:41;;;;;;;5.40;2.83;;;;;;;22.33;46.94;100004.62;4451233;32;34359;-57
2022/05/31 11:01:09;;;;;;;;;;;;;;;21.14;48.38;99996.34;4432877;32;33069;-57
2022/05/31 11:03:58;;;;;;;4.60;2.30;;;;;;;21.60;47.68;99986.00;4451770;32;33394;-57
2022/05/31 11:06:28;;;;;;;5.93;2.53;;;;;;;22.65;46.52;99979.94;4449783;32;34487;-57
2022/05/31 11:12:07;;;;;;;5.85;2.60;;;;;;;23.82;43.21;99984.84;4438748;32;34476;-57
2022/05/31 11:14:43;;;;;;;4.90;2.12;;;;;;;23.47;43.58;99977.94;4442055;32;33105;-58
2022/05/31 11:17:34;;;;;;;7.43;2.78;;;;;;;23.40;43.80;99971.81;4440485;32;34796;-58
2022/05/31 11:20:11;;;;;;;4.93;2.40;;;;;;;23.29;44.89;99974.50;4455310;32;33990;-57
2022/05/31 11:23:09;;;;;;;6.87;3.03;;;;;;;22.82;43.99;99967.59;4451584;32;34645;-57
2022/05/31 11:25:43;;;;;;;5.15;2.42;;;;;;;23.53;43.57;99967.34;4444150;32;34185;-58
2022/05/31 11:28:32;;;;;;;4.53;2.40;;;;;;;23.66;43.28;99969.03;4447274;32;33626;-58
2022/05/31 11:31:16;;;;;;;5.97;2.40;;;;;;;23.85;43.82;99959.22;4443159;32;34134;-57
2022/05/31 11:34:05;;;;;;;6.85;2.60;;;;;;;23.43;41.34;99958.59;4453935;32;33671;-58
2022/05/31 11:36:46;;;;;;;5.00;2.45;;;;;;;23.81;42.23;99962.78;4436073;32;33402;-57
2022/05/31 11:39:53;;;;;;;4.87;2.10;;;;;;;24.36;41.30;99966.78;4452955;32;33865;-59
2022/05/31 11:42:37;;;;;;;5.45;2.25;;;;;;;25.23;38.43;99945.59;4440902;32;34697;-56
2022/05/31 11:45:24;;;;;;;6.25;1.98;;;;;;;24.89;40.24;99941.53;4454500;32;34047;-57
2022/05/31 11:48:12;;;;;;;6.57;3.15;;;;;;;24.09;40.23;99958.19;4441036;32;34331;-58
2022/05/31 11:50:56;;;;;;;4.87;2.37;;;;;;;23.99;40.67;99955.59;4440457;32;34821;-58
2022/05/31 11:54:02;;;;;;;7.32;2.42;;;;;;;25.12;39.06;99943.91;4439255;32;33775;-57
2022/05/31 11:56:32;;;;;;;;;;;;;;;25.18;37.35;99942.94;4453474;32;34152;-58
2022/05/31 11:59:15;;;;;;;7.07;2.70;;;;;;;24.88;38.40;99939.78;4451834;32;33564;-57
2022/05/31 12:01:53;;;;;;;5.55;2.50;;;;;;;24.66;39.12;99938.25;4445384;32;33225;-59
2022/05/31 12:04:32;;;;;;;5.97;3.00;;;;;;;23.78;40.94;99951.31;4429702;32;34562;-57
2022/05/31 12:07:13;;;;;;;6.97;3.30;;;;;;;23.57;41.74;99944.41;4433622;32;34546;-59
2022/05/31 12:09:48;;;;;;;6.10;3.65;;;;;;;24.67;39.30;99940.03;4444021;32;34143;-57
2022/05/31 12:12:20;;;;;;;8.18;3.53;;;;;;;25.20;38.45;99930.56;4428543;32;33894;-58
2022/05/31 12:14:53;;;;;;;6.45;3.15;;;;;;;26.11;36.38;99923.09;4432930;32;32721;-57
2022/05/31 12:17:28;;;;;;;7.22;3.62;;;;;;;26.46;35.83;99912.72;4431630;32;33650;-58
2022/05/31 12:20:08;;;;;;;6.82;3.80;;;;;;;26.03;36.92;99913.47;4427086;32;33466;-59
2022/05/31 12:22:42;;;;;;;8.50;3.75;;;;;;;26.33;36.25;99912.97;4451239;32;33981;-58
2022/05/31 12:25:18;;;;;;;7.18;3.60;;;;;;;26.86;35.32;99904.00;4429763;32;33711;-57